Caraquet, Canada
Current Conditions -  °F | °C
As of 2:00 PM on Thursday 27 Nov 2014 (Local Time) from CZBF Reporting Station
Light Snow Light Snow  
Wind Chill: 15°   Ceiling: 8000
Heat Index: 27°   Visibility: 3mi
Dew Point: 21°   Wind: 14mph
Humidity: 80%   Direction: 330°NNW
Pressure: 29.76"   Gusts: 23mph
Location:  47.78°N, 64.95°W
Report Text: CZBF 271800Z 33012G20KT 300V360 3SM -SN DRSN SCT016 OVC080 M03/M06 A2976 RMK SC3AS5 AC ASOCTD SLP080
Loading
Personal Weather Stations






























Interactive Weather Map New forecast layout! Learn more

10-Day Weather Forecast

Advertisements
Track Severe Weather on mobile